Vohburg — V2OW7 — position and weather

sailwx.info

Track history (hours):
 
Tides and Currents Weather Stations Pressure Air Temp Water Temp Dewpoint Dewpoint Depression Visibility Wind Speed Wind Dir Waves Ship Positions

Vohburg

Last reported at 2015-Sep-03 21:29 UTC. Time now 2015-Sep-04 01:34 UTC.
Position N 55°30' E 010°52'.

Length 140 m; draft 5.9 m.

Type: Cargo ship. MMSI: 305773000.

Date/timePositionNaut miles runAvg speedWind from/ knotsBaromVisibWave heightAir tempDewpointWater temp
2015-Sep-03 21:29N 55°30' E 010°52'112 9.9
2015-Sep-03 10:07N 57°22' E 010°43'5 7.9
2015-Sep-03 09:32N 57°27' E 010°43'8 8.6
2015-Sep-03 08:33N 57°35' E 010°44'9 8.7
2015-Sep-03 07:33N 57°44' E 010°46'9 8.7
2015-Sep-03 06:30N 57°46' E 010°29'18414.1
2015-Sep-02 17:28N 55°35' E 006°34'8213.6
2015-Sep-02 11:28N 54°23' E 005°25'1313.8
2015-Sep-02 10:33N 54°12' E 005°15'1413.7
2015-Sep-02 09:33N 53°60' E 005°05'1413.8
2015-Sep-02 08:33N 53°47' E 004°57'1413.9
2015-Sep-02 07:33N 53°34' E 004°48'1514.6
2015-Sep-02 06:33N 53°20' E 004°38'1616.4
2015-Sep-02 05:33N 53°06' E 004°27'1818.2
2015-Sep-02 04:33N 52°50' E 004°13'1818.1
2015-Sep-02 03:33N 52°35' E 003°54'1717.5
2015-Sep-02 02:33N 52°21' E 003°38'2016.5
2015-Sep-02 01:20N 52°02' E 003°25'2815.3
2015-Sep-01 23:30N 51°39' E 003°01'1415.0
2015-Sep-01 22:33N 51°28' E 002°46'9 9.2
2015-Sep-01 21:33N 51°23' E 002°58'9 7.9
2015-Sep-01 20:28N 51°21' E 003°11'0 0.0
2015-Sep-01 18:21N 51°21' E 003°11'0 0.0
2015-Sep-01 17:30N 51°21' E 003°11'0 0.0
2015-Sep-01 06:33N 51°21' E 003°11'0 0.0
2015-Sep-01 05:33N 51°21' E 003°11'0 0.0
2015-Sep-01 04:33N 51°21' E 003°11'0 0.0
2015-Sep-01 03:30N 51°21' E 003°11'0 0.0
2015-Sep-01 02:27N 51°21' E 003°11'0 0.0
2015-Sep-01 01:15N 51°21' E 003°11'0 0.0
2015-Sep-01 00:27N 51°21' E 003°11'0 0.0
2015-Aug-31 23:30N 51°21' E 003°11'0 0.0
2015-Aug-31 22:09N 51°21' E 003°11'0 0.0
2015-Aug-31 21:24N 51°21' E 003°11'0 0.0
2015-Aug-31 20:06N 51°21' E 003°11'0 0.0
2015-Aug-31 19:33N 51°21' E 003°11'0 0.0
2015-Aug-31 16:33N 51°21' E 003°11'0 0.0
2015-Aug-31 15:33N 51°21' E 003°11'0 0.0
2015-Aug-31 14:33N 51°21' E 003°11'0 0.0
2015-Aug-31 13:32N 51°21' E 003°11'0 0.0
2015-Aug-31 12:32N 51°21' E 003°11'0 0.0
2015-Aug-31 11:32N 51°21' E 003°11'0 0.0
2015-Aug-31 10:33N 51°21' E 003°11'1010.5
2015-Aug-31 09:34N 51°22' E 002°55'1110.4
2015-Aug-31 08:33N 51°28' E 002°41'4915.0
2015-Aug-31 05:16N 52°15' E 002°15'1215.8
2015-Aug-31 04:32N 52°26' E 002°08'1515.8
2015-Aug-31 03:33N 52°40' E 001°58'1515.0
2015-Aug-31 02:33N 52°51' E 001°41'1312.6
2015-Aug-31 01:33N 52°58' E 001°25'1312.8
2015-Aug-31 00:32N 53°05' E 001°06'1212.6
2015-Aug-30 23:33N 53°12' E 000°49'1212.4
2015-Aug-30 22:33N 53°23' E 000°38'1312.8
2015-Aug-30 21:33N 53°35' E 000°32'1312.7
2015-Aug-30 20:34N 53°46' E 000°22'1414.0
2015-Aug-30 19:33N 53°59' E 000°12'1515.3
2015-Aug-30 18:34N 54°11' W 000°02'1616.3
2015-Aug-30 17:34N 54°24' W 000°20'1716.7
2015-Aug-30 16:32N 54°37' W 000°40'1515.5
2015-Aug-30 15:33N 54°40' W 001°06'4 2.9
2015-Aug-30 14:06N 54°36' W 001°09'0 0.0
2015-Aug-30 13:33N 54°36' W 001°09'0 0.0
2015-Aug-30 10:12N 54°36' W 001°09'0 0.0
2015-Aug-30 09:21N 54°36' W 001°09'0 0.0
2015-Aug-30 08:09N 54°36' W 001°09'0 0.0
2015-Aug-30 06:27N 54°36' W 001°09'0 0.5
2015-Aug-30 05:33N 54°36' W 001°10'1211.9
2015-Aug-30 04:33N 54°44' W 000°54'1515.4
2015-Aug-30 03:33N 54°51' W 000°30'1515.4
2015-Aug-30 02:33N 54°57' W 000°06'39015.6
2015-Aug-29 01:33N 57°47' E 010°28'1313.0
2015-Aug-29 00:33N 57°45' E 010°52'1515.2
2015-Aug-28 23:34N 57°35' E 011°14'1515.1
2015-Aug-28 22:33N 57°23' E 011°30'1616.2
2015-Aug-28 21:33N 57°08' E 011°40'1616.2
2015-Aug-28 20:33N 56°52' E 011°50'1616.1
2015-Aug-28 19:34N 56°37' E 011°59'1615.8
2015-Aug-28 18:34N 56°23' E 012°13'1515.4
2015-Aug-28 17:33N 56°11' E 012°29'1414.3
2015-Aug-28 16:33N 55°58' E 012°42'1414.5
2015-Aug-28 15:33N 55°44' E 012°42'9 9.3
2015-Aug-28 14:33N 55°35' E 012°42'1212.1
2015-Aug-28 13:33N 55°23' E 012°41'1312.7
2015-Aug-28 12:33N 55°16' E 012°59'1615.9
2015-Aug-28 11:33N 55°15' E 013°27'1615.8
2015-Aug-28 10:33N 55°14' E 013°55'1514.8
2015-Aug-28 09:33N 55°16' E 014°21'1616.0
2015-Aug-28 08:33N 55°27' E 014°41'1616.0
2015-Aug-28 07:33N 55°36' E 015°04'15616.9
2015-Aug-27 22:21N 57°02' E 018°59'203 4.9
2015-Aug-26 04:33N 59°37' E 023°11'1514.8
2015-Aug-26 03:33N 59°41' E 023°40'1515.3
2015-Aug-26 02:33N 59°45' E 024°09'1715.6
2015-Aug-26 01:29N 59°49' E 024°41'1415.5
2015-Aug-26 00:34N 59°52' E 025°09'1615.6
2015-Aug-25 23:33N 59°55' E 025°39'1615.6
2015-Aug-25 22:33N 59°59' E 026°10'1515.3
2015-Aug-25 21:34N 60°01' E 026°40'1515.0
2015-Aug-25 20:34N 60°02' E 027°10'1615.7
2015-Aug-25 19:33N 60°09' E 027°37'1514.7
2015-Aug-25 18:33N 60°09' E 028°07'4615.3
2015-Aug-25 15:33N 60°00' E 029°37'3 2.6
2015-Aug-25 14:28N 60°00' E 029°43'0 0.0
2015-Aug-25 13:28N 60°00' E 029°43'0 0.0
2015-Aug-25 12:31N 60°00' E 029°43'0 0.0
2015-Aug-25 11:31N 60°00' E 029°43'0 0.0
2015-Aug-25 10:31N 60°00' E 029°43'0 0.0
2015-Aug-25 09:32N 60°00' E 029°43'0 0.0
2015-Aug-25 08:32N 60°00' E 029°43'0 0.0
2015-Aug-25 07:33N 60°00' E 029°43'0 0.1
2015-Aug-25 06:33N 60°00' E 029°43'8 7.8
2015-Aug-25 05:33N 60°01' E 029°27'2411.3
2015-Aug-25 03:25N 60°02' E 028°39'33 8.6
2015-Aug-24 23:33N 60°07' E 027°33'1313.4
2015-Aug-24 22:33N 60°00' E 027°10'1514.7
2015-Aug-24 21:33N 59°60' E 026°41'  
Track history (hours):
 
Tides and Currents Weather Stations Pressure Air Temp Water Temp Dewpoint Dewpoint Depression Visibility Wind Speed Wind Dir Waves Ship Positions

Vohburg

Last reported at 2015-Sep-03 21:29 UTC. Time now 2015-Sep-04 01:34 UTC.
Position N 55°30' E 010°52'.

Length 140 m; draft 5.9 m.

Type: Cargo ship. MMSI: 305773000.

Date/timePositionNaut miles runAvg speedWind from/ knotsBaromVisibWave heightAir tempDewpointWater temp
2015-Sep-03 21:29N 55°30' E 010°52'112 9.9
2015-Sep-03 10:07N 57°22' E 010°43'5 7.9
2015-Sep-03 09:32N 57°27' E 010°43'8 8.6
2015-Sep-03 08:33N 57°35' E 010°44'9 8.7
2015-Sep-03 07:33N 57°44' E 010°46'9 8.7
2015-Sep-03 06:30N 57°46' E 010°29'18414.1
2015-Sep-02 17:28N 55°35' E 006°34'8213.6
2015-Sep-02 11:28N 54°23' E 005°25'1313.8
2015-Sep-02 10:33N 54°12' E 005°15'1413.7
2015-Sep-02 09:33N 53°60' E 005°05'1413.8
2015-Sep-02 08:33N 53°47' E 004°57'1413.9
2015-Sep-02 07:33N 53°34' E 004°48'1514.6
2015-Sep-02 06:33N 53°20' E 004°38'1616.4
2015-Sep-02 05:33N 53°06' E 004°27'1818.2
2015-Sep-02 04:33N 52°50' E 004°13'1818.1
2015-Sep-02 03:33N 52°35' E 003°54'1717.5
2015-Sep-02 02:33N 52°21' E 003°38'2016.5
2015-Sep-02 01:20N 52°02' E 003°25'2815.3
2015-Sep-01 23:30N 51°39' E 003°01'1415.0
2015-Sep-01 22:33N 51°28' E 002°46'9 9.2
2015-Sep-01 21:33N 51°23' E 002°58'9 7.9
2015-Sep-01 20:28N 51°21' E 003°11'0 0.0
2015-Sep-01 18:21N 51°21' E 003°11'0 0.0
2015-Sep-01 17:30N 51°21' E 003°11'0 0.0
2015-Sep-01 06:33N 51°21' E 003°11'0 0.0
2015-Sep-01 05:33N 51°21' E 003°11'0 0.0
2015-Sep-01 04:33N 51°21' E 003°11'0 0.0
2015-Sep-01 03:30N 51°21' E 003°11'0 0.0
2015-Sep-01 02:27N 51°21' E 003°11'0 0.0
2015-Sep-01 01:15N 51°21' E 003°11'0 0.0
2015-Sep-01 00:27N 51°21' E 003°11'0 0.0
2015-Aug-31 23:30N 51°21' E 003°11'0 0.0
2015-Aug-31 22:09N 51°21' E 003°11'0 0.0
2015-Aug-31 21:24N 51°21' E 003°11'0 0.0
2015-Aug-31 20:06N 51°21' E 003°11'0 0.0
2015-Aug-31 19:33N 51°21' E 003°11'0 0.0
2015-Aug-31 16:33N 51°21' E 003°11'0 0.0
2015-Aug-31 15:33N 51°21' E 003°11'0 0.0
2015-Aug-31 14:33N 51°21' E 003°11'0 0.0
2015-Aug-31 13:32N 51°21' E 003°11'0 0.0
2015-Aug-31 12:32N 51°21' E 003°11'0 0.0
2015-Aug-31 11:32N 51°21' E 003°11'0 0.0
2015-Aug-31 10:33N 51°21' E 003°11'1010.5
2015-Aug-31 09:34N 51°22' E 002°55'1110.4
2015-Aug-31 08:33N 51°28' E 002°41'4915.0
2015-Aug-31 05:16N 52°15' E 002°15'1215.8
2015-Aug-31 04:32N 52°26' E 002°08'1515.8
2015-Aug-31 03:33N 52°40' E 001°58'1515.0
2015-Aug-31 02:33N 52°51' E 001°41'1312.6
2015-Aug-31 01:33N 52°58' E 001°25'1312.8
2015-Aug-31 00:32N 53°05' E 001°06'1212.6
2015-Aug-30 23:33N 53°12' E 000°49'1212.4
2015-Aug-30 22:33N 53°23' E 000°38'1312.8
2015-Aug-30 21:33N 53°35' E 000°32'1312.7
2015-Aug-30 20:34N 53°46' E 000°22'1414.0
2015-Aug-30 19:33N 53°59' E 000°12'1515.3
2015-Aug-30 18:34N 54°11' W 000°02'1616.3
2015-Aug-30 17:34N 54°24' W 000°20'1716.7
2015-Aug-30 16:32N 54°37' W 000°40'1515.5
2015-Aug-30 15:33N 54°40' W 001°06'4 2.9
2015-Aug-30 14:06N 54°36' W 001°09'0 0.0
2015-Aug-30 13:33N 54°36' W 001°09'0 0.0
2015-Aug-30 10:12N 54°36' W 001°09'0 0.0
2015-Aug-30 09:21N 54°36' W 001°09'0 0.0
2015-Aug-30 08:09N 54°36' W 001°09'0 0.0
2015-Aug-30 06:27N 54°36' W 001°09'0 0.5
2015-Aug-30 05:33N 54°36' W 001°10'1211.9
2015-Aug-30 04:33N 54°44' W 000°54'1515.4
2015-Aug-30 03:33N 54°51' W 000°30'1515.4
2015-Aug-30 02:33N 54°57' W 000°06'39015.6
2015-Aug-29 01:33N 57°47' E 010°28'1313.0
2015-Aug-29 00:33N 57°45' E 010°52'1515.2
2015-Aug-28 23:34N 57°35' E 011°14'1515.1
2015-Aug-28 22:33N 57°23' E 011°30'1616.2
2015-Aug-28 21:33N 57°08' E 011°40'1616.2
2015-Aug-28 20:33N 56°52' E 011°50'1616.1
2015-Aug-28 19:34N 56°37' E 011°59'1615.8
2015-Aug-28 18:34N 56°23' E 012°13'1515.4
2015-Aug-28 17:33N 56°11' E 012°29'1414.3
2015-Aug-28 16:33N 55°58' E 012°42'1414.5
2015-Aug-28 15:33N 55°44' E 012°42'9 9.3
2015-Aug-28 14:33N 55°35' E 012°42'1212.1
2015-Aug-28 13:33N 55°23' E 012°41'1312.7
2015-Aug-28 12:33N 55°16' E 012°59'1615.9
2015-Aug-28 11:33N 55°15' E 013°27'1615.8
2015-Aug-28 10:33N 55°14' E 013°55'1514.8
2015-Aug-28 09:33N 55°16' E 014°21'1616.0
2015-Aug-28 08:33N 55°27' E 014°41'1616.0
2015-Aug-28 07:33N 55°36' E 015°04'15616.9
2015-Aug-27 22:21N 57°02' E 018°59'203 4.9
2015-Aug-26 04:33N 59°37' E 023°11'1514.8
2015-Aug-26 03:33N 59°41' E 023°40'1515.3
2015-Aug-26 02:33N 59°45' E 024°09'1715.6
2015-Aug-26 01:29N 59°49' E 024°41'1415.5
2015-Aug-26 00:34N 59°52' E 025°09'1615.6
2015-Aug-25 23:33N 59°55' E 025°39'1615.6
2015-Aug-25 22:33N 59°59' E 026°10'1515.3
2015-Aug-25 21:34N 60°01' E 026°40'1515.0
2015-Aug-25 20:34N 60°02' E 027°10'1615.7
2015-Aug-25 19:33N 60°09' E 027°37'1514.7
2015-Aug-25 18:33N 60°09' E 028°07'4615.3
2015-Aug-25 15:33N 60°00' E 029°37'3 2.6
2015-Aug-25 14:28N 60°00' E 029°43'0 0.0
2015-Aug-25 13:28N 60°00' E 029°43'0 0.0
2015-Aug-25 12:31N 60°00' E 029°43'0 0.0
2015-Aug-25 11:31N 60°00' E 029°43'0 0.0
2015-Aug-25 10:31N 60°00' E 029°43'0 0.0
2015-Aug-25 09:32N 60°00' E 029°43'0 0.0
2015-Aug-25 08:32N 60°00' E 029°43'0 0.0
2015-Aug-25 07:33N 60°00' E 029°43'0 0.1
2015-Aug-25 06:33N 60°00' E 029°43'8 7.8
2015-Aug-25 05:33N 60°01' E 029°27'2411.3
2015-Aug-25 03:25N 60°02' E 028°39'33 8.6
2015-Aug-24 23:33N 60°07' E 027°33'1313.4
2015-Aug-24 22:33N 60°00' E 027°10'1514.7
2015-Aug-24 21:33N 59°60' E 026°41'  

Dump ship's entire track history